RKTU/CHN METAR and TAF weather

Enter ICAO airport designator
Station Type Date Time Source
RKTU METAR 2019/07/20 19:18 UTC NOAA

RKTU 201918Z 20007KT 3200 RA BR BKN010 OVC040 23/23 Q0998 RMK CIG010


Station Type Date Time Source
RKTU Decoded METAR 2019/07/20 19:18 UTC NOAA

Chongju Ab, Korea, South (RKTU) 36-42N 127-30E 66M
Jul 20, 2019 - 03:18 PM EDT / 2019.07.20 1918 UTC
Wind: from the SSW (200 degrees) at 8 MPH (7 KT):0
Visibility: 1 mile(s):0
Sky conditions: overcast
Weather: rain; mist
Temperature: 73 F (23 C)
Dew Point: 73 F (23 C)
Relative Humidity: 100%
Pressure (altimeter): 29.47 in. Hg (0998 hPa)
ob: RKTU 201918Z 20007KT 3200 RA BR BKN010 OVC040 23/23 Q0998 RMK CIG010
cycle: 19

Station Type Date Time Source
RKTU TAF 2019/07/20 18:09 UTC NOAA

TAF RKTU 201700Z 2018/2124 06008KT 4800 -RA BR SCT015 BKN030 TN24/2021Z TX30/2106Z
BECMG 2019/2020 24010KT 3200 BKN015 OVC030
BECMG 2023/2024 24012KT 4800 BR BKN030
BECMG 2100/2101 9999 NSW
BECMG 2118/2119 24008KT 4800 BR BKN015 BKN030

Example: see airport list